sensor_id;sensor_type;location;lat;lon;timestamp;temperature;humidity
36002;DHT22;22070;50.922;5.430;2022-11-09T00:01:26;14.80;99.90
36002;DHT22;22070;50.922;5.430;2022-11-09T00:04:00;14.70;99.90
36002;DHT22;22070;50.922;5.430;2022-11-09T00:06:27;14.70;99.90
36002;DHT22;22070;50.922;5.430;2022-11-09T00:08:53;14.70;99.90
36002;DHT22;22070;50.922;5.430;2022-11-09T00:11:19;14.80;99.90
36002;DHT22;22070;50.922;5.430;2022-11-09T00:13:45;14.80;99.90
36002;DHT22;22070;50.922;5.430;2022-11-09T00:16:13;14.80;99.90
36002;DHT22;22070;50.922;5.430;2022-11-09T00:18:40;14.90;99.90
36002;DHT22;22070;50.922;5.430;2022-11-09T00:21:19;14.90;99.90
36002;DHT22;22070;50.922;5.430;2022-11-09T00:23:45;14.90;99.90
36002;DHT22;22070;50.922;5.430;2022-11-09T00:26:13;15.00;99.90
36002;DHT22;22070;50.922;5.430;2022-11-09T00:28:39;14.90;99.90
36002;DHT22;22070;50.922;5.430;2022-11-09T00:31:13;14.80;99.90
36002;DHT22;22070;50.922;5.430;2022-11-09T00:33:40;14.80;99.90
36002;DHT22;22070;50.922;5.430;2022-11-09T00:36:09;14.90;99.90
36002;DHT22;22070;50.922;5.430;2022-11-09T00:38:36;14.80;99.90
36002;DHT22;22070;50.922;5.430;2022-11-09T00:41:06;14.80;99.90
36002;DHT22;22070;50.922;5.430;2022-11-09T00:43:32;14.80;99.90
36002;DHT22;22070;50.922;5.430;2022-11-09T00:45:58;14.80;99.90
36002;DHT22;22070;50.922;5.430;2022-11-09T00:48:24;14.70;99.90
36002;DHT22;22070;50.922;5.430;2022-11-09T00:50:51;14.70;99.90
36002;DHT22;22070;50.922;5.430;2022-11-09T00:53:17;14.70;99.90
36002;DHT22;22070;50.922;5.430;2022-11-09T00:56:01;14.60;99.90
36002;DHT22;22070;50.922;5.430;2022-11-09T00:58:29;14.70;99.90
36002;DHT22;22070;50.922;5.430;2022-11-09T01:00:57;14.60;99.90
36002;DHT22;22070;50.922;5.430;2022-11-09T01:03:23;14.50;99.90
36002;DHT22;22070;50.922;5.430;2022-11-09T01:05:49;14.60;99.90
36002;DHT22;22070;50.922;5.430;2022-11-09T01:08:15;14.50;99.90
36002;DHT22;22070;50.922;5.430;2022-11-09T01:10:45;14.50;99.90
36002;DHT22;22070;50.922;5.430;2022-11-09T01:13:13;14.40;99.90
36002;DHT22;22070;50.922;5.430;2022-11-09T01:15:42;14.40;99.90
36002;DHT22;22070;50.922;5.430;2022-11-09T01:18:09;14.40;99.90
36002;DHT22;22070;50.922;5.430;2022-11-09T01:20:41;14.40;99.90
36002;DHT22;22070;50.922;5.430;2022-11-09T01:23:07;14.40;99.90
36002;DHT22;22070;50.922;5.430;2022-11-09T01:25:34;14.40;99.90
36002;DHT22;22070;50.922;5.430;2022-11-09T01:28:00;14.40;99.90
36002;DHT22;22070;50.922;5.430;2022-11-09T01:30:26;14.30;99.90
36002;DHT22;22070;50.922;5.430;2022-11-09T01:32:52;14.30;99.90
36002;DHT22;22070;50.922;5.430;2022-11-09T01:35:18;14.20;99.90
36002;DHT22;22070;50.922;5.430;2022-11-09T01:37:44;14.10;99.90
36002;DHT22;22070;50.922;5.430;2022-11-09T01:40:10;14.20;99.90
36002;DHT22;22070;50.922;5.430;2022-11-09T01:42:37;14.20;99.90
36002;DHT22;22070;50.922;5.430;2022-11-09T01:47:46;14.20;99.90
36002;DHT22;22070;50.922;5.430;2022-11-09T01:50:15;14.10;99.90
36002;DHT22;22070;50.922;5.430;2022-11-09T01:52:44;14.10;99.90
36002;DHT22;22070;50.922;5.430;2022-11-09T01:55:18;14.00;99.90
36002;DHT22;22070;50.922;5.430;2022-11-09T02:00:15;14.10;99.90
36002;DHT22;22070;50.922;5.430;2022-11-09T02:03:06;14.00;99.90
36002;DHT22;22070;50.922;5.430;2022-11-09T02:05:35;13.90;99.90
36002;DHT22;22070;50.922;5.430;2022-11-09T02:08:03;14.00;99.90
36002;DHT22;22070;50.922;5.430;2022-11-09T02:13:08;13.90;99.90
36002;DHT22;22070;50.922;5.430;2022-11-09T02:15:35;13.80;99.90
36002;DHT22;22070;50.922;5.430;2022-11-09T02:18:02;13.80;99.90
36002;DHT22;22070;50.922;5.430;2022-11-09T02:20:28;13.90;99.90
36002;DHT22;22070;50.922;5.430;2022-11-09T02:22:54;13.90;99.90
36002;DHT22;22070;50.922;5.430;2022-11-09T02:25:20;13.90;99.90
36002;DHT22;22070;50.922;5.430;2022-11-09T02:27:46;13.90;99.90
36002;DHT22;22070;50.922;5.430;2022-11-09T02:30:13;13.90;99.90
36002;DHT22;22070;50.922;5.430;2022-11-09T02:32:40;13.80;99.90
36002;DHT22;22070;50.922;5.430;2022-11-09T02:35:06;13.90;99.90
36002;DHT22;22070;50.922;5.430;2022-11-09T02:37:37;13.90;99.90
36002;DHT22;22070;50.922;5.430;2022-11-09T02:40:08;13.90;99.90
36002;DHT22;22070;50.922;5.430;2022-11-09T02:42:35;13.90;99.90
36002;DHT22;22070;50.922;5.430;2022-11-09T02:45:01;13.90;99.90
36002;DHT22;22070;50.922;5.430;2022-11-09T02:47:26;13.80;99.90
36002;DHT22;22070;50.922;5.430;2022-11-09T02:49:52;13.90;99.90
36002;DHT22;22070;50.922;5.430;2022-11-09T02:52:18;13.90;99.90
36002;DHT22;22070;50.922;5.430;2022-11-09T02:54:44;13.90;99.90
36002;DHT22;22070;50.922;5.430;2022-11-09T02:57:09;13.80;99.90
36002;DHT22;22070;50.922;5.430;2022-11-09T02:59:35;13.80;99.90
36002;DHT22;22070;50.922;5.430;2022-11-09T03:02:01;13.80;99.90
36002;DHT22;22070;50.922;5.430;2022-11-09T03:04:26;13.80;99.90
36002;DHT22;22070;50.922;5.430;2022-11-09T03:06:52;13.80;99.90
36002;DHT22;22070;50.922;5.430;2022-11-09T03:09:17;13.80;99.90
36002;DHT22;22070;50.922;5.430;2022-11-09T03:11:43;13.80;99.90
36002;DHT22;22070;50.922;5.430;2022-11-09T03:14:10;13.80;99.90
36002;DHT22;22070;50.922;5.430;2022-11-09T03:16:36;13.90;99.90
36002;DHT22;22070;50.922;5.430;2022-11-09T03:19:02;13.90;99.90
36002;DHT22;22070;50.922;5.430;2022-11-09T03:21:28;13.90;99.90
36002;DHT22;22070;50.922;5.430;2022-11-09T03:23:54;13.90;99.90
36002;DHT22;22070;50.922;5.430;2022-11-09T03:26:20;14.00;99.90
36002;DHT22;22070;50.922;5.430;2022-11-09T03:28:46;14.00;99.90
36002;DHT22;22070;50.922;5.430;2022-11-09T03:31:12;14.10;99.90
36002;DHT22;22070;50.922;5.430;2022-11-09T03:33:38;14.10;99.90
36002;DHT22;22070;50.922;5.430;2022-11-09T03:36:04;14.10;99.90
36002;DHT22;22070;50.922;5.430;2022-11-09T03:38:29;14.10;99.90
36002;DHT22;22070;50.922;5.430;2022-11-09T03:40:55;14.10;99.90
36002;DHT22;22070;50.922;5.430;2022-11-09T03:43:23;14.00;99.90
36002;DHT22;22070;50.922;5.430;2022-11-09T03:45:48;14.00;99.90
36002;DHT22;22070;50.922;5.430;2022-11-09T03:48:14;14.10;99.90
36002;DHT22;22070;50.922;5.430;2022-11-09T03:50:40;14.10;99.90
36002;DHT22;22070;50.922;5.430;2022-11-09T03:53:07;14.10;99.90
36002;DHT22;22070;50.922;5.430;2022-11-09T03:55:35;14.10;99.90
36002;DHT22;22070;50.922;5.430;2022-11-09T03:58:02;14.10;99.90
36002;DHT22;22070;50.922;5.430;2022-11-09T04:00:28;14.00;99.90
36002;DHT22;22070;50.922;5.430;2022-11-09T04:02:54;14.00;99.90
36002;DHT22;22070;50.922;5.430;2022-11-09T04:05:20;14.00;99.90
36002;DHT22;22070;50.922;5.430;2022-11-09T04:07:54;13.90;99.90
36002;DHT22;22070;50.922;5.430;2022-11-09T04:10:21;14.00;99.90
36002;DHT22;22070;50.922;5.430;2022-11-09T04:12:47;14.00;99.90
36002;DHT22;22070;50.922;5.430;2022-11-09T04:15:14;14.00;99.90
36002;DHT22;22070;50.922;5.430;2022-11-09T04:17:40;14.10;99.90
36002;DHT22;22070;50.922;5.430;2022-11-09T04:20:07;14.10;99.90
36002;DHT22;22070;50.922;5.430;2022-11-09T04:22:33;14.00;99.90
36002;DHT22;22070;50.922;5.430;2022-11-09T04:24:59;14.00;99.90
36002;DHT22;22070;50.922;5.430;2022-11-09T04:27:24;14.10;99.90
36002;DHT22;22070;50.922;5.430;2022-11-09T04:29:50;14.10;99.90
36002;DHT22;22070;50.922;5.430;2022-11-09T04:32:16;14.10;99.90
36002;DHT22;22070;50.922;5.430;2022-11-09T04:34:41;14.10;99.90
36002;DHT22;22070;50.922;5.430;2022-11-09T04:37:08;14.10;99.90
36002;DHT22;22070;50.922;5.430;2022-11-09T04:39:34;14.10;99.90
36002;DHT22;22070;50.922;5.430;2022-11-09T04:42:00;14.10;99.90
36002;DHT22;22070;50.922;5.430;2022-11-09T04:44:25;14.00;99.90
36002;DHT22;22070;50.922;5.430;2022-11-09T04:46:51;14.10;99.90
36002;DHT22;22070;50.922;5.430;2022-11-09T04:49:16;14.00;99.90
36002;DHT22;22070;50.922;5.430;2022-11-09T04:51:42;14.00;99.90
36002;DHT22;22070;50.922;5.430;2022-11-09T04:54:08;14.10;99.90
36002;DHT22;22070;50.922;5.430;2022-11-09T04:56:33;14.20;99.90
36002;DHT22;22070;50.922;5.430;2022-11-09T04:58:59;14.10;99.90
36002;DHT22;22070;50.922;5.430;2022-11-09T05:01:24;14.10;99.90
36002;DHT22;22070;50.922;5.430;2022-11-09T05:03:50;14.20;99.90
36002;DHT22;22070;50.922;5.430;2022-11-09T05:06:16;14.10;99.90
36002;DHT22;22070;50.922;5.430;2022-11-09T05:08:58;14.20;99.90
36002;DHT22;22070;50.922;5.430;2022-11-09T05:11:24;14.10;99.90
36002;DHT22;22070;50.922;5.430;2022-11-09T05:13:50;14.00;99.90
36002;DHT22;22070;50.922;5.430;2022-11-09T05:16:16;14.00;99.90
36002;DHT22;22070;50.922;5.430;2022-11-09T05:18:44;13.90;99.90
36002;DHT22;22070;50.922;5.430;2022-11-09T05:21:11;13.90;99.90
36002;DHT22;22070;50.922;5.430;2022-11-09T05:23:36;13.80;99.90
36002;DHT22;22070;50.922;5.430;2022-11-09T05:26:20;13.80;99.90
36002;DHT22;22070;50.922;5.430;2022-11-09T05:28:46;13.60;99.90
36002;DHT22;22070;50.922;5.430;2022-11-09T05:31:12;13.50;99.90
36002;DHT22;22070;50.922;5.430;2022-11-09T05:33:37;13.50;99.90
36002;DHT22;22070;50.922;5.430;2022-11-09T05:36:03;13.60;99.90
36002;DHT22;22070;50.922;5.430;2022-11-09T05:38:29;13.60;99.90
36002;DHT22;22070;50.922;5.430;2022-11-09T05:40:55;13.50;99.90
36002;DHT22;22070;50.922;5.430;2022-11-09T05:43:20;13.50;99.90
36002;DHT22;22070;50.922;5.430;2022-11-09T05:45:46;13.40;99.90
36002;DHT22;22070;50.922;5.430;2022-11-09T05:48:14;13.40;99.90
36002;DHT22;22070;50.922;5.430;2022-11-09T05:50:40;13.30;99.90
36002;DHT22;22070;50.922;5.430;2022-11-09T05:53:07;13.30;99.90
36002;DHT22;22070;50.922;5.430;2022-11-09T05:55:33;13.20;99.90
36002;DHT22;22070;50.922;5.430;2022-11-09T05:57:59;13.20;99.90
36002;DHT22;22070;50.922;5.430;2022-11-09T06:00:26;13.10;99.90
36002;DHT22;22070;50.922;5.430;2022-11-09T06:02:51;13.00;99.90
36002;DHT22;22070;50.922;5.430;2022-11-09T06:05:17;13.00;99.90
36002;DHT22;22070;50.922;5.430;2022-11-09T06:07:45;12.90;99.90
36002;DHT22;22070;50.922;5.430;2022-11-09T06:10:10;12.90;99.90
36002;DHT22;22070;50.922;5.430;2022-11-09T06:12:36;13.00;99.90
36002;DHT22;22070;50.922;5.430;2022-11-09T06:15:02;13.00;99.90
36002;DHT22;22070;50.922;5.430;2022-11-09T06:17:28;12.90;99.90
36002;DHT22;22070;50.922;5.430;2022-11-09T06:19:54;12.90;99.90
36002;DHT22;22070;50.922;5.430;2022-11-09T06:22:19;12.80;99.90
36002;DHT22;22070;50.922;5.430;2022-11-09T06:24:45;12.70;99.90
36002;DHT22;22070;50.922;5.430;2022-11-09T06:27:10;12.60;99.90
36002;DHT22;22070;50.922;5.430;2022-11-09T06:29:36;12.70;99.90
36002;DHT22;22070;50.922;5.430;2022-11-09T06:32:02;12.60;99.90
36002;DHT22;22070;50.922;5.430;2022-11-09T06:34:27;12.60;99.90
36002;DHT22;22070;50.922;5.430;2022-11-09T06:36:54;12.60;99.90
36002;DHT22;22070;50.922;5.430;2022-11-09T06:39:20;12.60;99.90
36002;DHT22;22070;50.922;5.430;2022-11-09T06:41:46;12.70;99.90
36002;DHT22;22070;50.922;5.430;2022-11-09T06:44:11;12.60;99.90
36002;DHT22;22070;50.922;5.430;2022-11-09T06:46:37;12.50;99.90
36002;DHT22;22070;50.922;5.430;2022-11-09T06:49:03;12.60;99.90
36002;DHT22;22070;50.922;5.430;2022-11-09T06:51:29;12.60;99.90
36002;DHT22;22070;50.922;5.430;2022-11-09T06:53:54;12.50;99.90
36002;DHT22;22070;50.922;5.430;2022-11-09T06:56:20;12.50;99.90
36002;DHT22;22070;50.922;5.430;2022-11-09T06:58:46;12.60;99.90
36002;DHT22;22070;50.922;5.430;2022-11-09T07:01:15;12.60;99.90
36002;DHT22;22070;50.922;5.430;2022-11-09T07:03:41;12.50;99.90
36002;DHT22;22070;50.922;5.430;2022-11-09T07:06:09;12.60;99.90
36002;DHT22;22070;50.922;5.430;2022-11-09T07:08:35;12.70;99.90
36002;DHT22;22070;50.922;5.430;2022-11-09T07:11:10;12.70;99.90
36002;DHT22;22070;50.922;5.430;2022-11-09T07:13:36;12.70;99.90
36002;DHT22;22070;50.922;5.430;2022-11-09T07:16:03;12.60;99.90
36002;DHT22;22070;50.922;5.430;2022-11-09T07:18:29;12.50;99.90
36002;DHT22;22070;50.922;5.430;2022-11-09T07:20:54;12.60;99.90
36002;DHT22;22070;50.922;5.430;2022-11-09T07:23:20;12.60;99.90
36002;DHT22;22070;50.922;5.430;2022-11-09T07:25:46;12.60;99.90
36002;DHT22;22070;50.922;5.430;2022-11-09T07:28:11;12.60;99.90
36002;DHT22;22070;50.922;5.430;2022-11-09T07:30:37;12.60;99.90
36002;DHT22;22070;50.922;5.430;2022-11-09T07:33:11;12.60;99.90
36002;DHT22;22070;50.922;5.430;2022-11-09T07:35:37;12.60;99.90
36002;DHT22;22070;50.922;5.430;2022-11-09T07:38:03;12.60;99.90
36002;DHT22;22070;50.922;5.430;2022-11-09T07:40:29;12.60;99.90
36002;DHT22;22070;50.922;5.430;2022-11-09T07:42:59;12.70;99.90
36002;DHT22;22070;50.922;5.430;2022-11-09T07:45:25;12.70;99.90
36002;DHT22;22070;50.922;5.430;2022-11-09T07:47:59;12.70;99.90
36002;DHT22;22070;50.922;5.430;2022-11-09T07:50:25;12.60;99.90
36002;DHT22;22070;50.922;5.430;2022-11-09T07:52:53;12.70;99.90
36002;DHT22;22070;50.922;5.430;2022-11-09T07:55:18;12.80;99.90
36002;DHT22;22070;50.922;5.430;2022-11-09T07:57:44;12.80;99.90
36002;DHT22;22070;50.922;5.430;2022-11-09T08:00:11;12.80;99.90
36002;DHT22;22070;50.922;5.430;2022-11-09T08:02:37;12.80;99.90
36002;DHT22;22070;50.922;5.430;2022-11-09T08:05:03;12.80;99.90
36002;DHT22;22070;50.922;5.430;2022-11-09T08:07:29;12.90;99.90
36002;DHT22;22070;50.922;5.430;2022-11-09T08:09:54;12.80;99.90
36002;DHT22;22070;50.922;5.430;2022-11-09T08:12:20;12.90;99.90
36002;DHT22;22070;50.922;5.430;2022-11-09T08:14:46;12.90;99.90
36002;DHT22;22070;50.922;5.430;2022-11-09T08:17:11;12.90;99.90
36002;DHT22;22070;50.922;5.430;2022-11-09T08:19:37;13.00;99.90
36002;DHT22;22070;50.922;5.430;2022-11-09T08:22:03;13.10;99.90
36002;DHT22;22070;50.922;5.430;2022-11-09T08:24:28;13.10;99.90
36002;DHT22;22070;50.922;5.430;2022-11-09T08:26:54;13.10;99.90
36002;DHT22;22070;50.922;5.430;2022-11-09T08:29:20;13.10;99.90
36002;DHT22;22070;50.922;5.430;2022-11-09T08:31:49;13.20;99.90
36002;DHT22;22070;50.922;5.430;2022-11-09T08:34:14;13.30;99.90
36002;DHT22;22070;50.922;5.430;2022-11-09T08:36:40;13.40;99.90
36002;DHT22;22070;50.922;5.430;2022-11-09T08:39:06;13.40;99.90
36002;DHT22;22070;50.922;5.430;2022-11-09T08:41:32;13.50;99.90
36002;DHT22;22070;50.922;5.430;2022-11-09T08:43:58;13.50;99.90
36002;DHT22;22070;50.922;5.430;2022-11-09T08:46:24;13.40;99.90
36002;DHT22;22070;50.922;5.430;2022-11-09T08:48:49;13.50;99.90
36002;DHT22;22070;50.922;5.430;2022-11-09T08:51:15;13.50;99.90
36002;DHT22;22070;50.922;5.430;2022-11-09T08:53:40;13.50;99.90
36002;DHT22;22070;50.922;5.430;2022-11-09T08:56:07;13.50;99.90
36002;DHT22;22070;50.922;5.430;2022-11-09T08:58:33;13.50;99.90
36002;DHT22;22070;50.922;5.430;2022-11-09T09:00:58;13.60;99.90
36002;DHT22;22070;50.922;5.430;2022-11-09T09:03:24;13.60;99.90
36002;DHT22;22070;50.922;5.430;2022-11-09T09:05:50;13.60;99.90
36002;DHT22;22070;50.922;5.430;2022-11-09T09:08:16;13.60;99.90
36002;DHT22;22070;50.922;5.430;2022-11-09T09:10:46;13.80;99.90
36002;DHT22;22070;50.922;5.430;2022-11-09T09:13:11;13.80;99.90
36002;DHT22;22070;50.922;5.430;2022-11-09T09:15:38;13.80;99.90
36002;DHT22;22070;50.922;5.430;2022-11-09T09:18:04;13.80;99.90
36002;DHT22;22070;50.922;5.430;2022-11-09T09:20:31;13.90;99.90
36002;DHT22;22070;50.922;5.430;2022-11-09T09:22:58;13.90;99.90
36002;DHT22;22070;50.922;5.430;2022-11-09T09:25:25;13.90;99.90
36002;DHT22;22070;50.922;5.430;2022-11-09T09:27:50;13.90;99.90
36002;DHT22;22070;50.922;5.430;2022-11-09T09:30:16;14.00;99.90
36002;DHT22;22070;50.922;5.430;2022-11-09T09:32:42;14.00;99.90
36002;DHT22;22070;50.922;5.430;2022-11-09T09:35:08;14.00;99.90
36002;DHT22;22070;50.922;5.430;2022-11-09T09:37:33;14.00;99.90
36002;DHT22;22070;50.922;5.430;2022-11-09T09:39:59;14.10;99.90
36002;DHT22;22070;50.922;5.430;2022-11-09T09:42:43;14.10;99.90
36002;DHT22;22070;50.922;5.430;2022-11-09T09:52:55;14.30;99.90
36002;DHT22;22070;50.922;5.430;2022-11-09T09:55:43;14.30;99.90
36002;DHT22;22070;50.922;5.430;2022-11-09T09:58:27;14.30;99.90
36002;DHT22;22070;50.922;5.430;2022-11-09T10:01:02;14.40;99.90
36002;DHT22;22070;50.922;5.430;2022-11-09T10:03:29;14.40;99.90
36002;DHT22;22070;50.922;5.430;2022-11-09T10:11:59;14.50;99.90
36002;DHT22;22070;50.922;5.430;2022-11-09T10:17:25;14.50;99.90
36002;DHT22;22070;50.922;5.430;2022-11-09T10:25:05;14.60;99.90
36002;DHT22;22070;50.922;5.430;2022-11-09T10:27:36;14.40;99.90
36002;DHT22;22070;50.922;5.430;2022-11-09T10:30:15;14.70;99.90
36002;DHT22;22070;50.922;5.430;2022-11-09T10:32:44;14.60;99.90
36002;DHT22;22070;50.922;5.430;2022-11-09T10:35:19;14.60;99.90
36002;DHT22;22070;50.922;5.430;2022-11-09T10:37:47;14.70;99.90
36002;DHT22;22070;50.922;5.430;2022-11-09T10:42:59;14.70;99.90
36002;DHT22;22070;50.922;5.430;2022-11-09T10:45:36;14.70;99.90
36002;DHT22;22070;50.922;5.430;2022-11-09T10:48:04;14.70;99.90
36002;DHT22;22070;50.922;5.430;2022-11-09T10:50:49;14.70;99.90
36002;DHT22;22070;50.922;5.430;2022-11-09T10:53:19;14.70;99.90
36002;DHT22;22070;50.922;5.430;2022-11-09T10:55:55;14.60;99.90
36002;DHT22;22070;50.922;5.430;2022-11-09T10:58:25;14.60;99.90
36002;DHT22;22070;50.922;5.430;2022-11-09T11:03:33;14.80;99.90
36002;DHT22;22070;50.922;5.430;2022-11-09T11:08:28;14.80;99.90
36002;DHT22;22070;50.922;5.430;2022-11-09T11:11:10;14.80;99.90
36002;DHT22;22070;50.922;5.430;2022-11-09T11:13:39;14.80;99.90
36002;DHT22;22070;50.922;5.430;2022-11-09T11:16:23;14.90;99.90
36002;DHT22;22070;50.922;5.430;2022-11-09T11:18:50;14.90;99.90
36002;DHT22;22070;50.922;5.430;2022-11-09T11:21:17;14.90;99.90
36002;DHT22;22070;50.922;5.430;2022-11-09T11:23:43;14.90;99.90
36002;DHT22;22070;50.922;5.430;2022-11-09T11:29:04;14.90;99.90
36002;DHT22;22070;50.922;5.430;2022-11-09T11:31:32;14.90;99.90
36002;DHT22;22070;50.922;5.430;2022-11-09T11:33:58;14.80;99.90
36002;DHT22;22070;50.922;5.430;2022-11-09T11:43:10;14.90;99.90
36002;DHT22;22070;50.922;5.430;2022-11-09T11:53:30;14.90;99.90
36002;DHT22;22070;50.922;5.430;2022-11-09T11:56:17;14.90;99.90
36002;DHT22;22070;50.922;5.430;2022-11-09T11:58:47;14.90;99.90
36002;DHT22;22070;50.922;5.430;2022-11-09T12:34:04;15.00;99.90
36002;DHT22;22070;50.922;5.430;2022-11-09T12:42:27;14.90;99.90
36002;DHT22;22070;50.922;5.430;2022-11-09T12:45:03;14.90;99.90
36002;DHT22;22070;50.922;5.430;2022-11-09T12:47:33;14.90;99.90
36002;DHT22;22070;50.922;5.430;2022-11-09T12:50:02;14.90;99.90
36002;DHT22;22070;50.922;5.430;2022-11-09T12:52:28;14.90;99.90
36002;DHT22;22070;50.922;5.430;2022-11-09T12:54:55;14.90;99.90
36002;DHT22;22070;50.922;5.430;2022-11-09T12:57:28;14.90;99.90
36002;DHT22;22070;50.922;5.430;2022-11-09T12:59:58;14.90;99.90
36002;DHT22;22070;50.922;5.430;2022-11-09T13:02:37;14.90;99.90
36002;DHT22;22070;50.922;5.430;2022-11-09T13:05:32;14.80;99.90
36002;DHT22;22070;50.922;5.430;2022-11-09T13:07:59;14.80;99.90
36002;DHT22;22070;50.922;5.430;2022-11-09T13:10:35;14.50;99.90
36002;DHT22;22070;50.922;5.430;2022-11-09T13:13:18;14.40;99.90
36002;DHT22;22070;50.922;5.430;2022-11-09T13:20:54;14.10;99.90
36002;DHT22;22070;50.922;5.430;2022-11-09T13:23:32;14.20;99.90
36002;DHT22;22070;50.922;5.430;2022-11-09T13:26:00;14.20;99.90
36002;DHT22;22070;50.922;5.430;2022-11-09T13:30:59;14.40;99.90
36002;DHT22;22070;50.922;5.430;2022-11-09T13:33:28;14.40;99.90
36002;DHT22;22070;50.922;5.430;2022-11-09T13:36:13;14.50;99.90
36002;DHT22;22070;50.922;5.430;2022-11-09T13:38:40;14.50;99.90
36002;DHT22;22070;50.922;5.430;2022-11-09T13:44:12;14.60;99.90
36002;DHT22;22070;50.922;5.430;2022-11-09T13:46:39;14.60;99.90
36002;DHT22;22070;50.922;5.430;2022-11-09T13:52:40;14.80;99.90
36002;DHT22;22070;50.922;5.430;2022-11-09T13:55:25;15.00;99.90
36002;DHT22;22070;50.922;5.430;2022-11-09T13:57:56;15.10;99.90
36002;DHT22;22070;50.922;5.430;2022-11-09T14:00:24;15.20;99.90
36002;DHT22;22070;50.922;5.430;2022-11-09T14:02:55;15.30;99.90
36002;DHT22;22070;50.922;5.430;2022-11-09T14:05:33;15.40;99.90
36002;DHT22;22070;50.922;5.430;2022-11-09T14:08:01;15.50;99.90
36002;DHT22;22070;50.922;5.430;2022-11-09T14:16:19;15.30;99.90
36002;DHT22;22070;50.922;5.430;2022-11-09T14:23:47;15.20;99.90
36002;DHT22;22070;50.922;5.430;2022-11-09T14:26:19;15.20;99.90
36002;DHT22;22070;50.922;5.430;2022-11-09T14:28:45;15.20;99.90
36002;DHT22;22070;50.922;5.430;2022-11-09T14:31:30;15.20;99.90
36002;DHT22;22070;50.922;5.430;2022-11-09T14:34:00;15.20;99.90
36002;DHT22;22070;50.922;5.430;2022-11-09T14:36:31;15.20;99.90
36002;DHT22;22070;50.922;5.430;2022-11-09T14:39:00;15.30;99.90
36002;DHT22;22070;50.922;5.430;2022-11-09T14:41:27;15.40;99.90
36002;DHT22;22070;50.922;5.430;2022-11-09T14:43:55;15.50;99.90
36002;DHT22;22070;50.922;5.430;2022-11-09T14:46:25;15.50;99.90
36002;DHT22;22070;50.922;5.430;2022-11-09T14:48:59;15.30;99.90
36002;DHT22;22070;50.922;5.430;2022-11-09T14:51:37;15.20;99.90
36002;DHT22;22070;50.922;5.430;2022-11-09T14:54:10;15.20;99.90
36002;DHT22;22070;50.922;5.430;2022-11-09T14:56:37;15.10;99.90
36002;DHT22;22070;50.922;5.430;2022-11-09T14:59:05;15.10;99.90
36002;DHT22;22070;50.922;5.430;2022-11-09T15:01:31;15.10;99.90
36002;DHT22;22070;50.922;5.430;2022-11-09T15:04:07;15.00;99.90
36002;DHT22;22070;50.922;5.430;2022-11-09T15:06:33;14.90;99.90
36002;DHT22;22070;50.922;5.430;2022-11-09T15:09:05;14.90;99.90
36002;DHT22;22070;50.922;5.430;2022-11-09T15:11:37;14.80;99.90
36002;DHT22;22070;50.922;5.430;2022-11-09T15:14:20;14.80;99.90
36002;DHT22;22070;50.922;5.430;2022-11-09T15:16:47;14.70;99.90
36002;DHT22;22070;50.922;5.430;2022-11-09T15:21:55;14.60;99.90
36002;DHT22;22070;50.922;5.430;2022-11-09T15:24:23;14.60;99.90
36002;DHT22;22070;50.922;5.430;2022-11-09T15:26:50;14.60;99.90
36002;DHT22;22070;50.922;5.430;2022-11-09T15:29:38;14.60;99.90
36002;DHT22;22070;50.922;5.430;2022-11-09T15:32:14;14.30;99.90
36002;DHT22;22070;50.922;5.430;2022-11-09T15:37:28;13.90;99.90
36002;DHT22;22070;50.922;5.430;2022-11-09T15:39:56;13.80;99.90
36002;DHT22;22070;50.922;5.430;2022-11-09T15:42:23;13.70;99.90
36002;DHT22;22070;50.922;5.430;2022-11-09T15:44:57;13.50;99.90
36002;DHT22;22070;50.922;5.430;2022-11-09T15:47:35;13.40;99.90
36002;DHT22;22070;50.922;5.430;2022-11-09T15:50:22;13.20;99.90
36002;DHT22;22070;50.922;5.430;2022-11-09T15:52:49;12.90;99.90
36002;DHT22;22070;50.922;5.430;2022-11-09T15:55:17;12.70;99.90
36002;DHT22;22070;50.922;5.430;2022-11-09T15:57:46;12.50;99.90
36002;DHT22;22070;50.922;5.430;2022-11-09T16:00:13;12.40;99.90
36002;DHT22;22070;50.922;5.430;2022-11-09T16:02:39;12.20;99.90
36002;DHT22;22070;50.922;5.430;2022-11-09T16:05:05;12.30;99.90
36002;DHT22;22070;50.922;5.430;2022-11-09T16:07:31;12.30;99.90
36002;DHT22;22070;50.922;5.430;2022-11-09T16:09:57;12.30;99.90
36002;DHT22;22070;50.922;5.430;2022-11-09T16:12:22;12.30;99.90
36002;DHT22;22070;50.922;5.430;2022-11-09T16:14:48;12.30;99.90
36002;DHT22;22070;50.922;5.430;2022-11-09T16:17:14;12.30;99.90
36002;DHT22;22070;50.922;5.430;2022-11-09T16:19:39;12.30;99.90
36002;DHT22;22070;50.922;5.430;2022-11-09T16:22:08;12.30;99.90
36002;DHT22;22070;50.922;5.430;2022-11-09T16:24:34;12.20;99.90
36002;DHT22;22070;50.922;5.430;2022-11-09T16:26:59;12.10;99.90
36002;DHT22;22070;50.922;5.430;2022-11-09T16:29:27;12.10;99.90
36002;DHT22;22070;50.922;5.430;2022-11-09T16:31:53;12.10;99.90
36002;DHT22;22070;50.922;5.430;2022-11-09T16:34:19;12.10;99.90
36002;DHT22;22070;50.922;5.430;2022-11-09T16:36:47;12.00;99.90
36002;DHT22;22070;50.922;5.430;2022-11-09T16:39:13;12.00;99.90
36002;DHT22;22070;50.922;5.430;2022-11-09T16:41:46;11.90;99.90
36002;DHT22;22070;50.922;5.430;2022-11-09T16:44:13;11.80;99.90
36002;DHT22;22070;50.922;5.430;2022-11-09T16:46:42;11.80;99.90
36002;DHT22;22070;50.922;5.430;2022-11-09T16:49:09;11.80;99.90
36002;DHT22;22070;50.922;5.430;2022-11-09T16:51:34;11.70;99.90
36002;DHT22;22070;50.922;5.430;2022-11-09T16:54:00;11.70;99.90
36002;DHT22;22070;50.922;5.430;2022-11-09T16:56:26;11.60;99.90
36002;DHT22;22070;50.922;5.430;2022-11-09T16:58:51;11.70;99.90
36002;DHT22;22070;50.922;5.430;2022-11-09T17:01:17;11.70;99.90
36002;DHT22;22070;50.922;5.430;2022-11-09T17:03:43;11.70;99.90
36002;DHT22;22070;50.922;5.430;2022-11-09T17:06:09;11.60;99.90
36002;DHT22;22070;50.922;5.430;2022-11-09T17:08:39;11.60;99.90
36002;DHT22;22070;50.922;5.430;2022-11-09T17:11:10;11.60;99.90
36002;DHT22;22070;50.922;5.430;2022-11-09T17:13:36;11.50;99.90
36002;DHT22;22070;50.922;5.430;2022-11-09T17:16:05;11.60;99.90
36002;DHT22;22070;50.922;5.430;2022-11-09T17:18:30;11.50;99.90
36002;DHT22;22070;50.922;5.430;2022-11-09T17:20:56;11.60;99.90
36002;DHT22;22070;50.922;5.430;2022-11-09T17:23:22;11.60;99.90
36002;DHT22;22070;50.922;5.430;2022-11-09T17:25:55;11.50;99.90
36002;DHT22;22070;50.922;5.430;2022-11-09T17:28:21;11.50;99.90
36002;DHT22;22070;50.922;5.430;2022-11-09T17:30:47;11.50;99.90
36002;DHT22;22070;50.922;5.430;2022-11-09T17:33:13;11.50;99.90
36002;DHT22;22070;50.922;5.430;2022-11-09T17:35:38;11.40;99.90
36002;DHT22;22070;50.922;5.430;2022-11-09T17:38:04;11.40;99.90
36002;DHT22;22070;50.922;5.430;2022-11-09T17:40:30;11.40;99.90